sensor_id;sensor_type;location;lat;lon;timestamp;P1;durP1;ratioP1;P2;durP2;ratioP2
75216;SDS011;63800;51.972;5.682;2023-03-21T00:01:49;42.42;;;18.73;;
75216;SDS011;63800;51.972;5.682;2023-03-21T00:04:16;43.60;;;21.83;;
75216;SDS011;63800;51.972;5.682;2023-03-21T00:06:41;44.22;;;20.90;;
75216;SDS011;63800;51.972;5.682;2023-03-21T00:09:07;45.00;;;23.02;;
75216;SDS011;63800;51.972;5.682;2023-03-21T00:11:32;46.63;;;22.42;;
75216;SDS011;63800;51.972;5.682;2023-03-21T00:13:58;46.08;;;22.35;;
75216;SDS011;63800;51.972;5.682;2023-03-21T00:16:26;45.65;;;22.33;;
75216;SDS011;63800;51.972;5.682;2023-03-21T00:18:54;46.70;;;24.13;;
75216;SDS011;63800;51.972;5.682;2023-03-21T00:21:22;47.65;;;21.60;;
75216;SDS011;63800;51.972;5.682;2023-03-21T00:24:02;48.47;;;22.95;;
75216;SDS011;63800;51.972;5.682;2023-03-21T00:26:29;46.53;;;23.10;;
75216;SDS011;63800;51.972;5.682;2023-03-21T00:28:55;44.38;;;21.85;;
75216;SDS011;63800;51.972;5.682;2023-03-21T00:31:21;50.15;;;25.50;;
75216;SDS011;63800;51.972;5.682;2023-03-21T00:33:46;45.80;;;21.52;;
75216;SDS011;63800;51.972;5.682;2023-03-21T00:36:12;46.83;;;24.15;;
75216;SDS011;63800;51.972;5.682;2023-03-21T00:38:38;51.25;;;22.23;;
75216;SDS011;63800;51.972;5.682;2023-03-21T00:41:04;42.53;;;20.92;;
75216;SDS011;63800;51.972;5.682;2023-03-21T00:43:32;41.05;;;20.38;;
75216;SDS011;63800;51.972;5.682;2023-03-21T00:45:58;38.80;;;19.98;;
75216;SDS011;63800;51.972;5.682;2023-03-21T00:48:24;44.25;;;22.17;;
75216;SDS011;63800;51.972;5.682;2023-03-21T00:50:51;45.65;;;21.13;;
75216;SDS011;63800;51.972;5.682;2023-03-21T00:53:18;51.95;;;21.42;;
75216;SDS011;63800;51.972;5.682;2023-03-21T00:55:44;43.35;;;21.33;;
75216;SDS011;63800;51.972;5.682;2023-03-21T00:58:10;43.13;;;21.27;;
75216;SDS011;63800;51.972;5.682;2023-03-21T01:00:36;40.72;;;20.67;;
75216;SDS011;63800;51.972;5.682;2023-03-21T01:03:03;46.08;;;21.15;;
75216;SDS011;63800;51.972;5.682;2023-03-21T01:05:32;39.58;;;21.00;;
75216;SDS011;63800;51.972;5.682;2023-03-21T01:08:19;41.85;;;19.38;;
75216;SDS011;63800;51.972;5.682;2023-03-21T01:10:47;41.30;;;19.92;;
75216;SDS011;63800;51.972;5.682;2023-03-21T01:13:14;36.38;;;19.35;;
75216;SDS011;63800;51.972;5.682;2023-03-21T01:15:42;38.30;;;19.05;;
75216;SDS011;63800;51.972;5.682;2023-03-21T01:18:10;37.88;;;19.40;;
75216;SDS011;63800;51.972;5.682;2023-03-21T01:20:35;38.60;;;18.77;;
75216;SDS011;63800;51.972;5.682;2023-03-21T01:23:01;43.47;;;19.52;;
75216;SDS011;63800;51.972;5.682;2023-03-21T01:25:27;36.47;;;19.45;;
75216;SDS011;63800;51.972;5.682;2023-03-21T01:27:52;40.47;;;19.60;;
75216;SDS011;63800;51.972;5.682;2023-03-21T01:30:19;36.70;;;18.40;;
75216;SDS011;63800;51.972;5.682;2023-03-21T01:32:45;37.75;;;19.33;;
75216;SDS011;63800;51.972;5.682;2023-03-21T01:35:11;37.50;;;18.23;;
75216;SDS011;63800;51.972;5.682;2023-03-21T01:37:36;40.00;;;18.85;;
75216;SDS011;63800;51.972;5.682;2023-03-21T01:40:02;37.40;;;19.05;;
75216;SDS011;63800;51.972;5.682;2023-03-21T01:42:29;38.55;;;19.20;;
75216;SDS011;63800;51.972;5.682;2023-03-21T01:44:56;36.15;;;17.38;;
75216;SDS011;63800;51.972;5.682;2023-03-21T01:47:31;34.65;;;18.50;;
75216;SDS011;63800;51.972;5.682;2023-03-21T01:49:57;37.58;;;18.17;;
75216;SDS011;63800;51.972;5.682;2023-03-21T01:52:30;38.03;;;18.75;;
75216;SDS011;63800;51.972;5.682;2023-03-21T01:54:58;35.20;;;17.35;;
75216;SDS011;63800;51.972;5.682;2023-03-21T01:57:33;33.72;;;18.10;;
75216;SDS011;63800;51.972;5.682;2023-03-21T02:00:05;39.35;;;18.75;;
75216;SDS011;63800;51.972;5.682;2023-03-21T02:02:37;34.92;;;18.95;;
75216;SDS011;63800;51.972;5.682;2023-03-21T02:05:21;35.72;;;17.00;;
75216;SDS011;63800;51.972;5.682;2023-03-21T02:07:53;34.30;;;18.83;;
75216;SDS011;63800;51.972;5.682;2023-03-21T02:10:19;32.88;;;18.30;;
75216;SDS011;63800;51.972;5.682;2023-03-21T02:12:45;34.67;;;19.52;;
75216;SDS011;63800;51.972;5.682;2023-03-21T02:15:11;35.83;;;18.48;;
75216;SDS011;63800;51.972;5.682;2023-03-21T02:26:56;39.30;;;17.70;;
75216;SDS011;63800;51.972;5.682;2023-03-21T02:39:45;41.13;;;20.63;;
75216;SDS011;63800;51.972;5.682;2023-03-21T02:42:20;39.80;;;19.98;;
75216;SDS011;63800;51.972;5.682;2023-03-21T02:44:57;40.97;;;20.10;;
75216;SDS011;63800;51.972;5.682;2023-03-21T02:47:32;42.78;;;20.30;;
75216;SDS011;63800;51.972;5.682;2023-03-21T02:52:32;35.88;;;19.88;;
75216;SDS011;63800;51.972;5.682;2023-03-21T02:55:01;43.05;;;19.52;;
75216;SDS011;63800;51.972;5.682;2023-03-21T02:57:28;39.15;;;20.40;;
75216;SDS011;63800;51.972;5.682;2023-03-21T02:59:54;38.03;;;19.33;;
75216;SDS011;63800;51.972;5.682;2023-03-21T03:02:21;41.97;;;21.00;;
75216;SDS011;63800;51.972;5.682;2023-03-21T03:04:50;39.72;;;20.08;;
75216;SDS011;63800;51.972;5.682;2023-03-21T03:10:19;43.58;;;20.13;;
75216;SDS011;63800;51.972;5.682;2023-03-21T03:18:38;37.28;;;20.95;;
75216;SDS011;63800;51.972;5.682;2023-03-21T03:21:44;42.40;;;20.52;;
75216;SDS011;63800;51.972;5.682;2023-03-21T03:24:32;41.50;;;20.70;;
75216;SDS011;63800;51.972;5.682;2023-03-21T03:27:05;45.05;;;21.73;;
75216;SDS011;63800;51.972;5.682;2023-03-21T03:29:36;38.53;;;20.15;;
75216;SDS011;63800;51.972;5.682;2023-03-21T03:32:11;42.40;;;21.45;;
75216;SDS011;63800;51.972;5.682;2023-03-21T03:34:45;39.42;;;19.88;;
75216;SDS011;63800;51.972;5.682;2023-03-21T03:37:15;36.47;;;19.48;;
75216;SDS011;63800;51.972;5.682;2023-03-21T03:39:53;36.88;;;18.83;;
75216;SDS011;63800;51.972;5.682;2023-03-21T03:42:50;37.95;;;19.70;;
75216;SDS011;63800;51.972;5.682;2023-03-21T03:45:17;36.22;;;18.20;;
75216;SDS011;63800;51.972;5.682;2023-03-21T03:48:06;35.70;;;18.30;;
75216;SDS011;63800;51.972;5.682;2023-03-21T03:51:00;32.85;;;16.63;;
75216;SDS011;63800;51.972;5.682;2023-03-21T03:55:56;34.35;;;16.23;;
75216;SDS011;63800;51.972;5.682;2023-03-21T03:58:24;33.25;;;15.93;;
75216;SDS011;63800;51.972;5.682;2023-03-21T04:00:50;32.88;;;16.05;;
75216;SDS011;63800;51.972;5.682;2023-03-21T04:03:17;32.10;;;15.13;;
75216;SDS011;63800;51.972;5.682;2023-03-21T04:05:43;27.52;;;15.07;;
75216;SDS011;63800;51.972;5.682;2023-03-21T04:08:10;27.10;;;14.52;;
75216;SDS011;63800;51.972;5.682;2023-03-21T04:10:37;28.77;;;14.65;;
75216;SDS011;63800;51.972;5.682;2023-03-21T04:13:02;27.98;;;15.45;;
75216;SDS011;63800;51.972;5.682;2023-03-21T04:15:28;33.45;;;14.98;;
75216;SDS011;63800;51.972;5.682;2023-03-21T04:17:53;27.17;;;14.27;;
75216;SDS011;63800;51.972;5.682;2023-03-21T04:20:20;25.13;;;12.52;;
75216;SDS011;63800;51.972;5.682;2023-03-21T04:22:46;28.25;;;12.95;;
75216;SDS011;63800;51.972;5.682;2023-03-21T04:25:12;25.63;;;12.77;;
75216;SDS011;63800;51.972;5.682;2023-03-21T04:27:38;26.30;;;13.32;;
75216;SDS011;63800;51.972;5.682;2023-03-21T04:30:04;23.38;;;13.02;;
75216;SDS011;63800;51.972;5.682;2023-03-21T04:32:31;27.98;;;12.60;;
75216;SDS011;63800;51.972;5.682;2023-03-21T04:34:57;23.73;;;11.93;;
75216;SDS011;63800;51.972;5.682;2023-03-21T04:37:24;28.38;;;12.45;;
75216;SDS011;63800;51.972;5.682;2023-03-21T04:39:49;24.42;;;11.75;;
75216;SDS011;63800;51.972;5.682;2023-03-21T04:42:16;25.50;;;12.48;;
75216;SDS011;63800;51.972;5.682;2023-03-21T04:44:45;26.33;;;11.27;;
75216;SDS011;63800;51.972;5.682;2023-03-21T04:47:12;22.70;;;11.45;;
75216;SDS011;63800;51.972;5.682;2023-03-21T04:49:39;21.92;;;10.70;;
75216;SDS011;63800;51.972;5.682;2023-03-21T04:52:05;23.08;;;11.30;;
75216;SDS011;63800;51.972;5.682;2023-03-21T04:54:31;23.02;;;10.93;;
75216;SDS011;63800;51.972;5.682;2023-03-21T04:56:57;21.45;;;10.52;;
75216;SDS011;63800;51.972;5.682;2023-03-21T04:59:22;27.48;;;12.00;;
75216;SDS011;63800;51.972;5.682;2023-03-21T05:01:49;25.92;;;11.88;;
75216;SDS011;63800;51.972;5.682;2023-03-21T05:04:15;21.20;;;10.80;;
75216;SDS011;63800;51.972;5.682;2023-03-21T05:06:41;20.15;;;10.35;;
75216;SDS011;63800;51.972;5.682;2023-03-21T05:09:07;23.45;;;10.02;;
75216;SDS011;63800;51.972;5.682;2023-03-21T05:11:34;20.77;;;9.57;;
75216;SDS011;63800;51.972;5.682;2023-03-21T05:14:02;23.25;;;11.43;;
75216;SDS011;63800;51.972;5.682;2023-03-21T05:16:28;22.92;;;10.70;;
75216;SDS011;63800;51.972;5.682;2023-03-21T05:18:58;24.08;;;10.02;;
75216;SDS011;63800;51.972;5.682;2023-03-21T05:23:53;20.98;;;9.98;;
75216;SDS011;63800;51.972;5.682;2023-03-21T05:26:22;24.48;;;10.60;;
75216;SDS011;63800;51.972;5.682;2023-03-21T05:28:48;21.70;;;10.48;;
75216;SDS011;63800;51.972;5.682;2023-03-21T05:31:16;21.63;;;10.32;;
75216;SDS011;63800;51.972;5.682;2023-03-21T05:33:43;19.77;;;9.85;;
75216;SDS011;63800;51.972;5.682;2023-03-21T05:36:09;19.27;;;9.77;;
75216;SDS011;63800;51.972;5.682;2023-03-21T05:38:35;17.52;;;9.25;;
75216;SDS011;63800;51.972;5.682;2023-03-21T05:41:01;23.20;;;8.98;;
75216;SDS011;63800;51.972;5.682;2023-03-21T05:43:27;18.27;;;9.95;;
75216;SDS011;63800;51.972;5.682;2023-03-21T05:45:52;17.63;;;8.85;;
75216;SDS011;63800;51.972;5.682;2023-03-21T05:48:18;16.58;;;9.43;;
75216;SDS011;63800;51.972;5.682;2023-03-21T05:50:44;15.07;;;8.80;;
75216;SDS011;63800;51.972;5.682;2023-03-21T05:53:10;18.08;;;9.10;;
75216;SDS011;63800;51.972;5.682;2023-03-21T05:55:36;19.60;;;9.60;;
75216;SDS011;63800;51.972;5.682;2023-03-21T05:58:02;16.73;;;9.57;;
75216;SDS011;63800;51.972;5.682;2023-03-21T06:00:28;15.82;;;8.43;;
75216;SDS011;63800;51.972;5.682;2023-03-21T06:02:53;19.75;;;9.63;;
75216;SDS011;63800;51.972;5.682;2023-03-21T06:05:19;15.68;;;8.85;;
75216;SDS011;63800;51.972;5.682;2023-03-21T06:07:44;17.58;;;9.23;;
75216;SDS011;63800;51.972;5.682;2023-03-21T06:10:10;17.15;;;8.27;;
75216;SDS011;63800;51.972;5.682;2023-03-21T06:12:36;18.63;;;8.68;;
75216;SDS011;63800;51.972;5.682;2023-03-21T06:15:02;18.85;;;9.63;;
75216;SDS011;63800;51.972;5.682;2023-03-21T06:17:32;20.67;;;10.32;;
75216;SDS011;63800;51.972;5.682;2023-03-21T06:19:58;18.23;;;9.40;;
75216;SDS011;63800;51.972;5.682;2023-03-21T06:22:25;19.85;;;9.32;;
75216;SDS011;63800;51.972;5.682;2023-03-21T06:24:52;19.13;;;9.45;;
75216;SDS011;63800;51.972;5.682;2023-03-21T06:27:17;19.20;;;9.38;;
75216;SDS011;63800;51.972;5.682;2023-03-21T06:29:43;18.55;;;8.88;;
75216;SDS011;63800;51.972;5.682;2023-03-21T06:32:10;20.98;;;9.57;;
75216;SDS011;63800;51.972;5.682;2023-03-21T06:34:36;21.27;;;9.60;;
75216;SDS011;63800;51.972;5.682;2023-03-21T06:37:01;19.83;;;9.63;;
75216;SDS011;63800;51.972;5.682;2023-03-21T06:39:28;18.60;;;9.35;;
75216;SDS011;63800;51.972;5.682;2023-03-21T06:41:55;17.15;;;9.55;;
75216;SDS011;63800;51.972;5.682;2023-03-21T06:44:21;20.40;;;10.32;;
75216;SDS011;63800;51.972;5.682;2023-03-21T06:46:46;22.25;;;10.48;;
75216;SDS011;63800;51.972;5.682;2023-03-21T06:49:12;18.30;;;8.27;;
75216;SDS011;63800;51.972;5.682;2023-03-21T06:51:37;22.67;;;9.35;;
75216;SDS011;63800;51.972;5.682;2023-03-21T06:54:03;20.67;;;9.32;;
75216;SDS011;63800;51.972;5.682;2023-03-21T06:56:28;18.65;;;9.05;;
75216;SDS011;63800;51.972;5.682;2023-03-21T06:58:54;19.08;;;8.65;;
75216;SDS011;63800;51.972;5.682;2023-03-21T07:01:20;17.02;;;8.70;;
75216;SDS011;63800;51.972;5.682;2023-03-21T07:03:46;16.92;;;9.02;;
75216;SDS011;63800;51.972;5.682;2023-03-21T07:06:11;21.38;;;9.80;;
75216;SDS011;63800;51.972;5.682;2023-03-21T07:08:38;20.98;;;9.27;;
75216;SDS011;63800;51.972;5.682;2023-03-21T07:11:04;15.45;;;8.30;;
75216;SDS011;63800;51.972;5.682;2023-03-21T07:13:30;26.15;;;9.95;;
75216;SDS011;63800;51.972;5.682;2023-03-21T07:15:56;21.13;;;9.02;;
75216;SDS011;63800;51.972;5.682;2023-03-21T07:18:22;16.02;;;8.70;;
75216;SDS011;63800;51.972;5.682;2023-03-21T07:20:48;16.35;;;8.85;;
75216;SDS011;63800;51.972;5.682;2023-03-21T07:23:15;17.75;;;8.82;;
75216;SDS011;63800;51.972;5.682;2023-03-21T07:25:46;20.40;;;9.18;;
75216;SDS011;63800;51.972;5.682;2023-03-21T07:28:13;16.20;;;9.07;;
75216;SDS011;63800;51.972;5.682;2023-03-21T07:30:40;17.42;;;8.40;;
75216;SDS011;63800;51.972;5.682;2023-03-21T07:33:06;20.10;;;9.70;;
75216;SDS011;63800;51.972;5.682;2023-03-21T07:35:31;19.65;;;8.85;;
75216;SDS011;63800;51.972;5.682;2023-03-21T07:37:57;15.65;;;9.20;;
75216;SDS011;63800;51.972;5.682;2023-03-21T07:40:23;18.27;;;9.95;;
75216;SDS011;63800;51.972;5.682;2023-03-21T07:42:49;18.95;;;8.40;;
75216;SDS011;63800;51.972;5.682;2023-03-21T07:45:15;18.80;;;9.32;;
75216;SDS011;63800;51.972;5.682;2023-03-21T07:47:45;15.95;;;8.82;;
75216;SDS011;63800;51.972;5.682;2023-03-21T07:50:11;16.90;;;8.73;;
75216;SDS011;63800;51.972;5.682;2023-03-21T07:52:36;13.88;;;8.90;;
75216;SDS011;63800;51.972;5.682;2023-03-21T07:55:02;15.93;;;8.80;;
75216;SDS011;63800;51.972;5.682;2023-03-21T07:57:28;21.67;;;8.25;;
75216;SDS011;63800;51.972;5.682;2023-03-21T07:59:53;20.83;;;8.65;;
75216;SDS011;63800;51.972;5.682;2023-03-21T08:02:18;19.23;;;8.25;;
75216;SDS011;63800;51.972;5.682;2023-03-21T08:04:44;17.52;;;8.70;;
75216;SDS011;63800;51.972;5.682;2023-03-21T08:07:10;18.70;;;8.13;;
75216;SDS011;63800;51.972;5.682;2023-03-21T08:09:35;15.15;;;7.50;;
75216;SDS011;63800;51.972;5.682;2023-03-21T08:12:01;11.10;;;7.18;;
75216;SDS011;63800;51.972;5.682;2023-03-21T08:14:27;16.38;;;8.02;;
75216;SDS011;63800;51.972;5.682;2023-03-21T08:16:53;18.92;;;8.55;;
75216;SDS011;63800;51.972;5.682;2023-03-21T08:19:18;19.65;;;8.95;;
75216;SDS011;63800;51.972;5.682;2023-03-21T08:21:45;17.08;;;8.52;;
75216;SDS011;63800;51.972;5.682;2023-03-21T08:24:14;17.00;;;8.30;;
75216;SDS011;63800;51.972;5.682;2023-03-21T08:26:40;13.35;;;7.53;;
75216;SDS011;63800;51.972;5.682;2023-03-21T08:29:06;13.98;;;7.15;;
75216;SDS011;63800;51.972;5.682;2023-03-21T08:31:32;14.30;;;7.13;;
75216;SDS011;63800;51.972;5.682;2023-03-21T08:33:57;12.40;;;6.63;;
75216;SDS011;63800;51.972;5.682;2023-03-21T08:36:23;15.63;;;7.05;;
75216;SDS011;63800;51.972;5.682;2023-03-21T08:38:48;13.27;;;7.00;;
75216;SDS011;63800;51.972;5.682;2023-03-21T08:41:18;15.02;;;7.20;;
75216;SDS011;63800;51.972;5.682;2023-03-21T08:43:46;15.23;;;7.45;;
75216;SDS011;63800;51.972;5.682;2023-03-21T08:46:12;12.95;;;7.80;;
75216;SDS011;63800;51.972;5.682;2023-03-21T08:48:37;16.25;;;8.05;;
75216;SDS011;63800;51.972;5.682;2023-03-21T08:51:03;17.08;;;7.80;;
75216;SDS011;63800;51.972;5.682;2023-03-21T08:53:30;16.52;;;7.60;;
75216;SDS011;63800;51.972;5.682;2023-03-21T08:55:56;14.82;;;7.38;;
75216;SDS011;63800;51.972;5.682;2023-03-21T08:58:21;16.13;;;8.32;;
75216;SDS011;63800;51.972;5.682;2023-03-21T09:00:47;17.02;;;7.38;;
75216;SDS011;63800;51.972;5.682;2023-03-21T09:03:12;15.57;;;7.55;;
75216;SDS011;63800;51.972;5.682;2023-03-21T09:05:37;17.38;;;8.30;;
75216;SDS011;63800;51.972;5.682;2023-03-21T09:08:03;18.63;;;7.85;;
75216;SDS011;63800;51.972;5.682;2023-03-21T09:10:29;16.58;;;7.30;;
75216;SDS011;63800;51.972;5.682;2023-03-21T09:12:55;13.18;;;7.30;;
75216;SDS011;63800;51.972;5.682;2023-03-21T09:15:22;18.48;;;9.15;;
75216;SDS011;63800;51.972;5.682;2023-03-21T09:17:52;16.13;;;8.57;;
75216;SDS011;63800;51.972;5.682;2023-03-21T09:20:20;13.45;;;7.25;;
75216;SDS011;63800;51.972;5.682;2023-03-21T09:22:53;19.52;;;8.45;;
75216;SDS011;63800;51.972;5.682;2023-03-21T09:25:20;19.13;;;9.13;;
75216;SDS011;63800;51.972;5.682;2023-03-21T09:27:45;14.63;;;8.32;;
75216;SDS011;63800;51.972;5.682;2023-03-21T09:30:12;18.02;;;8.65;;
75216;SDS011;63800;51.972;5.682;2023-03-21T09:32:40;16.63;;;9.25;;
75216;SDS011;63800;51.972;5.682;2023-03-21T09:35:06;17.77;;;8.68;;
75216;SDS011;63800;51.972;5.682;2023-03-21T09:37:34;13.40;;;7.82;;
75216;SDS011;63800;51.972;5.682;2023-03-21T09:40:02;15.32;;;7.85;;
75216;SDS011;63800;51.972;5.682;2023-03-21T09:45:31;14.38;;;8.27;;
75216;SDS011;63800;51.972;5.682;2023-03-21T09:47:59;13.95;;;8.23;;
75216;SDS011;63800;51.972;5.682;2023-03-21T09:50:30;15.65;;;9.27;;
75216;SDS011;63800;51.972;5.682;2023-03-21T09:53:07;18.40;;;8.43;;
75216;SDS011;63800;51.972;5.682;2023-03-21T09:55:47;17.17;;;8.55;;
75216;SDS011;63800;51.972;5.682;2023-03-21T10:00:51;15.18;;;7.50;;
75216;SDS011;63800;51.972;5.682;2023-03-21T10:03:24;13.98;;;8.15;;
75216;SDS011;63800;51.972;5.682;2023-03-21T10:05:54;12.43;;;7.47;;
75216;SDS011;63800;51.972;5.682;2023-03-21T10:08:42;13.05;;;7.57;;
75216;SDS011;63800;51.972;5.682;2023-03-21T10:11:12;16.90;;;8.10;;
75216;SDS011;63800;51.972;5.682;2023-03-21T10:13:45;13.40;;;8.32;;
75216;SDS011;63800;51.972;5.682;2023-03-21T10:16:16;13.50;;;7.38;;
75216;SDS011;63800;51.972;5.682;2023-03-21T10:18:46;20.38;;;7.63;;
75216;SDS011;63800;51.972;5.682;2023-03-21T10:21:16;12.68;;;7.47;;
75216;SDS011;63800;51.972;5.682;2023-03-21T10:23:46;13.05;;;6.88;;
75216;SDS011;63800;51.972;5.682;2023-03-21T10:26:13;12.80;;;6.13;;
75216;SDS011;63800;51.972;5.682;2023-03-21T10:28:39;12.65;;;6.65;;
75216;SDS011;63800;51.972;5.682;2023-03-21T10:31:07;9.73;;;6.43;;
75216;SDS011;63800;51.972;5.682;2023-03-21T10:33:38;12.70;;;6.53;;
75216;SDS011;63800;51.972;5.682;2023-03-21T10:36:08;13.77;;;6.68;;
75216;SDS011;63800;51.972;5.682;2023-03-21T10:38:39;12.02;;;6.32;;
75216;SDS011;63800;51.972;5.682;2023-03-21T10:41:10;11.02;;;6.35;;
75216;SDS011;63800;51.972;5.682;2023-03-21T10:43:36;11.68;;;7.10;;
75216;SDS011;63800;51.972;5.682;2023-03-21T10:46:38;11.27;;;6.40;;
75216;SDS011;63800;51.972;5.682;2023-03-21T10:48:57;13.82;;;7.25;;
75216;SDS011;63800;51.972;5.682;2023-03-21T10:51:26;10.48;;;6.25;;
75216;SDS011;63800;51.972;5.682;2023-03-21T10:53:59;11.07;;;6.35;;
75216;SDS011;63800;51.972;5.682;2023-03-21T10:56:30;14.57;;;6.82;;
75216;SDS011;63800;51.972;5.682;2023-03-21T10:59:00;13.82;;;7.05;;
75216;SDS011;63800;51.972;5.682;2023-03-21T11:01:32;12.13;;;6.75;;
75216;SDS011;63800;51.972;5.682;2023-03-21T11:04:04;12.65;;;6.93;;
75216;SDS011;63800;51.972;5.682;2023-03-21T11:06:35;11.52;;;6.25;;
75216;SDS011;63800;51.972;5.682;2023-03-21T11:09:07;12.48;;;6.18;;
75216;SDS011;63800;51.972;5.682;2023-03-21T11:11:39;16.25;;;6.60;;
75216;SDS011;63800;51.972;5.682;2023-03-21T11:14:07;14.07;;;6.45;;
75216;SDS011;63800;51.972;5.682;2023-03-21T11:16:48;12.35;;;6.03;;
75216;SDS011;63800;51.972;5.682;2023-03-21T11:19:16;15.52;;;6.68;;
75216;SDS011;63800;51.972;5.682;2023-03-21T11:21:43;13.38;;;6.10;;
75216;SDS011;63800;51.972;5.682;2023-03-21T11:24:11;10.02;;;6.28;;
75216;SDS011;63800;51.972;5.682;2023-03-21T11:26:38;10.63;;;5.50;;
75216;SDS011;63800;51.972;5.682;2023-03-21T11:29:29;12.50;;;6.32;;
75216;SDS011;63800;51.972;5.682;2023-03-21T11:35:00;13.52;;;6.22;;
75216;SDS011;63800;51.972;5.682;2023-03-21T11:37:33;13.75;;;5.97;;
75216;SDS011;63800;51.972;5.682;2023-03-21T11:42:50;11.57;;;6.15;;
75216;SDS011;63800;51.972;5.682;2023-03-21T11:45:20;11.57;;;5.65;;
75216;SDS011;63800;51.972;5.682;2023-03-21T11:47:58;13.68;;;6.13;;
75216;SDS011;63800;51.972;5.682;2023-03-21T11:55:56;9.80;;;5.80;;
75216;SDS011;63800;51.972;5.682;2023-03-21T12:04:02;12.18;;;6.63;;
75216;SDS011;63800;51.972;5.682;2023-03-21T12:06:44;12.00;;;6.05;;
75216;SDS011;63800;51.972;5.682;2023-03-21T12:09:33;12.65;;;5.93;;
75216;SDS011;63800;51.972;5.682;2023-03-21T12:12:14;9.90;;;6.25;;
75216;SDS011;63800;51.972;5.682;2023-03-21T12:20:26;10.80;;;6.07;;
75216;SDS011;63800;51.972;5.682;2023-03-21T12:23:06;11.40;;;5.90;;
75216;SDS011;63800;51.972;5.682;2023-03-21T12:31:47;8.80;;;5.28;;
75216;SDS011;63800;51.972;5.682;2023-03-21T12:34:38;8.63;;;5.78;;
75216;SDS011;63800;51.972;5.682;2023-03-21T12:37:14;12.15;;;6.80;;
75216;SDS011;63800;51.972;5.682;2023-03-21T12:39:47;10.63;;;5.45;;
75216;SDS011;63800;51.972;5.682;2023-03-21T12:45:00;12.15;;;5.25;;
75216;SDS011;63800;51.972;5.682;2023-03-21T12:47:33;9.60;;;5.22;;
75216;SDS011;63800;51.972;5.682;2023-03-21T12:50:04;9.00;;;5.47;;
75216;SDS011;63800;51.972;5.682;2023-03-21T12:52:41;10.30;;;5.65;;
75216;SDS011;63800;51.972;5.682;2023-03-21T12:57:47;12.48;;;5.60;;
75216;SDS011;63800;51.972;5.682;2023-03-21T13:00:19;8.68;;;5.50;;
75216;SDS011;63800;51.972;5.682;2023-03-21T13:02:48;11.38;;;6.28;;
75216;SDS011;63800;51.972;5.682;2023-03-21T13:05:19;11.80;;;6.03;;
75216;SDS011;63800;51.972;5.682;2023-03-21T13:08:05;9.57;;;5.85;;
75216;SDS011;63800;51.972;5.682;2023-03-21T13:10:34;11.13;;;5.50;;
75216;SDS011;63800;51.972;5.682;2023-03-21T13:16:12;11.25;;;6.28;;
75216;SDS011;63800;51.972;5.682;2023-03-21T13:26:57;11.43;;;6.18;;
75216;SDS011;63800;51.972;5.682;2023-03-21T13:29:48;8.77;;;6.35;;
75216;SDS011;63800;51.972;5.682;2023-03-21T13:32:27;9.30;;;5.80;;
75216;SDS011;63800;51.972;5.682;2023-03-21T13:34:59;13.07;;;6.13;;
75216;SDS011;63800;51.972;5.682;2023-03-21T13:37:28;9.23;;;5.70;;
75216;SDS011;63800;51.972;5.682;2023-03-21T13:40:02;11.88;;;6.07;;
75216;SDS011;63800;51.972;5.682;2023-03-21T13:42:39;13.50;;;5.88;;
75216;SDS011;63800;51.972;5.682;2023-03-21T13:45:10;10.02;;;5.90;;
75216;SDS011;63800;51.972;5.682;2023-03-21T13:47:52;8.75;;;5.35;;
75216;SDS011;63800;51.972;5.682;2023-03-21T13:55:41;8.32;;;5.35;;
75216;SDS011;63800;51.972;5.682;2023-03-21T13:58:31;10.73;;;6.30;;
75216;SDS011;63800;51.972;5.682;2023-03-21T14:01:20;8.90;;;6.18;;
75216;SDS011;63800;51.972;5.682;2023-03-21T14:03:47;9.13;;;5.68;;
75216;SDS011;63800;51.972;5.682;2023-03-21T14:06:14;9.82;;;5.90;;
75216;SDS011;63800;51.972;5.682;2023-03-21T14:08:43;6.65;;;5.90;;
75216;SDS011;63800;51.972;5.682;2023-03-21T14:11:15;7.60;;;5.47;;
75216;SDS011;63800;51.972;5.682;2023-03-21T14:13:43;8.63;;;6.00;;
75216;SDS011;63800;51.972;5.682;2023-03-21T14:16:11;9.45;;;6.07;;
75216;SDS011;63800;51.972;5.682;2023-03-21T14:18:45;9.85;;;6.40;;
75216;SDS011;63800;51.972;5.682;2023-03-21T14:21:22;8.00;;;5.78;;
75216;SDS011;63800;51.972;5.682;2023-03-21T14:23:56;8.27;;;5.82;;
75216;SDS011;63800;51.972;5.682;2023-03-21T14:26:34;12.32;;;6.45;;
75216;SDS011;63800;51.972;5.682;2023-03-21T14:29:04;10.50;;;6.05;;
75216;SDS011;63800;51.972;5.682;2023-03-21T14:31:31;9.35;;;5.72;;
75216;SDS011;63800;51.972;5.682;2023-03-21T14:33:57;7.40;;;5.82;;
75216;SDS011;63800;51.972;5.682;2023-03-21T14:36:26;8.18;;;6.20;;
75216;SDS011;63800;51.972;5.682;2023-03-21T14:41:42;7.18;;;5.75;;
75216;SDS011;63800;51.972;5.682;2023-03-21T14:44:14;9.63;;;6.72;;
75216;SDS011;63800;51.972;5.682;2023-03-21T14:46:49;9.65;;;6.55;;
75216;SDS011;63800;51.972;5.682;2023-03-21T14:51:44;9.63;;;6.78;;
75216;SDS011;63800;51.972;5.682;2023-03-21T14:54:11;10.20;;;7.07;;
75216;SDS011;63800;51.972;5.682;2023-03-21T14:56:42;9.82;;;6.28;;
75216;SDS011;63800;51.972;5.682;2023-03-21T14:59:11;10.30;;;6.43;;
75216;SDS011;63800;51.972;5.682;2023-03-21T15:01:39;11.27;;;6.47;;
75216;SDS011;63800;51.972;5.682;2023-03-21T15:04:05;8.57;;;6.40;;
75216;SDS011;63800;51.972;5.682;2023-03-21T15:06:31;9.88;;;6.63;;
75216;SDS011;63800;51.972;5.682;2023-03-21T15:08:58;9.20;;;6.15;;
75216;SDS011;63800;51.972;5.682;2023-03-21T15:11:29;10.40;;;5.50;;
75216;SDS011;63800;51.972;5.682;2023-03-21T15:13:56;7.72;;;5.50;;
75216;SDS011;63800;51.972;5.682;2023-03-21T15:16:25;9.82;;;6.00;;
75216;SDS011;63800;51.972;5.682;2023-03-21T15:18:51;11.13;;;5.78;;
75216;SDS011;63800;51.972;5.682;2023-03-21T15:21:20;12.65;;;5.93;;
75216;SDS011;63800;51.972;5.682;2023-03-21T15:23:52;9.45;;;6.57;;
75216;SDS011;63800;51.972;5.682;2023-03-21T15:26:21;10.43;;;6.20;;
75216;SDS011;63800;51.972;5.682;2023-03-21T15:28:49;13.30;;;6.72;;
75216;SDS011;63800;51.972;5.682;2023-03-21T15:31:24;9.45;;;5.70;;
75216;SDS011;63800;51.972;5.682;2023-03-21T15:33:54;10.55;;;6.32;;
75216;SDS011;63800;51.972;5.682;2023-03-21T15:36:21;10.25;;;6.13;;
75216;SDS011;63800;51.972;5.682;2023-03-21T15:38:51;12.25;;;6.80;;
75216;SDS011;63800;51.972;5.682;2023-03-21T15:44:04;8.20;;;6.68;;
75216;SDS011;63800;51.972;5.682;2023-03-21T15:49:08;11.27;;;7.20;;
75216;SDS011;63800;51.972;5.682;2023-03-21T15:52:02;8.98;;;6.47;;
75216;SDS011;63800;51.972;5.682;2023-03-21T15:54:42;15.23;;;7.80;;
75216;SDS011;63800;51.972;5.682;2023-03-21T15:59:53;10.50;;;7.00;;
75216;SDS011;63800;51.972;5.682;2023-03-21T16:02:24;10.73;;;6.43;;
75216;SDS011;63800;51.972;5.682;2023-03-21T16:04:55;8.60;;;6.03;;
75216;SDS011;63800;51.972;5.682;2023-03-21T16:07:24;10.32;;;6.68;;
75216;SDS011;63800;51.972;5.682;2023-03-21T16:09:55;10.35;;;6.88;;
75216;SDS011;63800;51.972;5.682;2023-03-21T16:12:23;9.48;;;6.60;;
75216;SDS011;63800;51.972;5.682;2023-03-21T16:14:48;10.45;;;6.53;;
75216;SDS011;63800;51.972;5.682;2023-03-21T16:17:30;12.30;;;7.05;;
75216;SDS011;63800;51.972;5.682;2023-03-21T16:20:00;14.57;;;7.47;;
75216;SDS011;63800;51.972;5.682;2023-03-21T16:22:26;12.30;;;7.70;;
75216;SDS011;63800;51.972;5.682;2023-03-21T16:24:54;9.82;;;7.78;;
75216;SDS011;63800;51.972;5.682;2023-03-21T16:27:20;15.88;;;8.13;;
75216;SDS011;63800;51.972;5.682;2023-03-21T16:29:46;11.75;;;7.47;;